KRCR/RCR METAR and TAF weather

Enter ICAO airport designator
Station Type Date Time Source
KRCR METAR 2019/04/25 01:55 UTC NOAA

KRCR 250155Z AUTO 15005KT 10SM OVC044 13/02 A2990 RMK AO2


Station Type Date Time Source
KRCR Decoded METAR 2019/04/25 01:55 UTC NOAA

Station name not available
Apr 24, 2019 - 09:55 PM EDT / 2019.04.25 0155 UTC
Wind: from the SSE (150 degrees) at 6 MPH (5 KT):0
Visibility: 10 mile(s):0
Sky conditions: overcast
Temperature: 55 F (13 C)
Dew Point: 35 F (2 C)
Relative Humidity: 47%
Pressure (altimeter): 29.9 in. Hg (1012 hPa)
ob: KRCR 250155Z AUTO 15005KT 10SM OVC044 13/02 A2990 RMK AO2
cycle: 2

Station Type Date Time Source
KRCR TAF UTC NOAA

Error!

Example: see airport list